Time;durP1;ratioP1;P1;durP2;ratioP2;P2;SDS_P1;SDS_P2;PMS_P1;PMS_P2;Temp;Humidity;BMP_temperature;BMP_pressure;BME280_temperature;BME280_humidity;BME280_pressure;Samples;Min_cycle;Max_cycle;Signal;HPM_P1;HPM_P2
2021/10/25 00:00:27;;;;;;;6.80;3.80;;;;;;;10.16;53.99;100163.72;5030952;28;20053;-82
2021/10/25 00:02:58;;;;;;;5.55;4.00;;;;;;;10.14;54.60;100160.34;5031942;28;20056;-83
2021/10/25 00:05:25;;;;;;;5.72;3.50;;;;;;;10.12;54.27;100159.53;5031139;28;20053;-83
2021/10/25 00:07:54;;;;;;;6.88;3.85;;;;;;;10.10;54.22;100161.41;5031050;28;20073;-82
2021/10/25 00:10:22;;;;;;;4.18;3.17;;;;;;;10.07;54.27;100149.25;5030676;28;20058;-82
2021/10/25 00:12:50;;;;;;;10.63;3.70;;;;;;;10.06;54.35;100151.97;5031779;28;20054;-83
2021/10/25 00:15:38;;;;;;;6.28;3.47;;;;;;;10.01;55.25;100152.19;5030922;28;20049;-83
2021/10/25 00:18:06;;;;;;;7.93;3.88;;;;;;;10.03;54.63;100150.34;5030635;28;20068;-83
2021/10/25 00:20:34;;;;;;;5.68;3.30;;;;;;;10.02;54.72;100152.09;5032103;28;20129;-84
2021/10/25 00:23:03;;;;;;;4.45;3.35;;;;;;;10.02;54.79;100153.91;5031542;28;20046;-84
2021/10/25 00:25:32;;;;;;;5.68;3.60;;;;;;;10.01;54.69;100146.91;5030767;28;20058;-84
2021/10/25 00:28:00;;;;;;;5.28;3.55;;;;;;;9.99;54.48;100149.63;5030513;28;20049;-87
2021/10/25 00:30:30;;;;;;;4.88;3.38;;;;;;;9.98;54.83;100145.28;5030924;28;20091;-87
2021/10/25 00:32:59;;;;;;;4.55;3.30;;;;;;;9.97;54.83;100143.59;5047125;28;20041;-83
2021/10/25 00:35:28;;;;;;;6.53;3.15;;;;;;;9.98;54.64;100142.66;5030282;28;20057;-83
2021/10/25 00:38:03;;;;;;;6.88;3.90;;;;;;;9.96;55.30;100151.56;5031776;28;20497;-83
2021/10/25 00:40:30;;;;;;;4.35;3.10;;;;;;;9.98;54.79;100149.72;5030478;28;20054;-83
2021/10/25 00:42:57;;;;;;;5.18;3.55;;;;;;;9.97;54.65;100147.97;5030101;28;20062;-83
2021/10/25 00:45:26;;;;;;;4.50;3.85;;;;;;;9.95;55.52;100150.72;5030140;28;20053;-83
2021/10/25 00:47:52;;;;;;;5.72;3.58;;;;;;;9.94;54.88;100143.72;5030432;28;20383;-83
2021/10/25 00:50:20;;;;;;;5.38;3.50;;;;;;;9.91;54.94;100147.34;5030218;28;20049;-83
2021/10/25 00:52:47;;;;;;;6.80;3.38;;;;;;;9.91;54.70;100149.16;5029152;28;20085;-83
2021/10/25 00:55:14;;;;;;;5.40;3.70;;;;;;;9.91;55.38;100150.00;5030323;28;20503;-83
2021/10/25 00:57:42;;;;;;;5.72;3.65;;;;;;;9.90;55.15;100153.56;5029030;28;20148;-83
2021/10/25 01:00:11;;;;;;;5.03;3.33;;;;;;;9.90;55.10;100152.69;5028649;28;20054;-83
2021/10/25 01:02:40;;;;;;;5.15;3.22;;;;;;;9.89;55.41;100156.25;5030038;28;20050;-83
2021/10/25 01:05:09;;;;;;;6.47;3.90;;;;;;;9.88;55.45;100149.28;5028694;28;20049;-83
2021/10/25 01:07:39;;;;;;;5.78;3.47;;;;;;;9.88;55.39;100146.66;5028641;28;20053;-83
2021/10/25 01:10:09;;;;;;;6.45;3.47;;;;;;;9.86;55.34;100149.38;5028968;28;20501;-83
2021/10/25 01:12:37;;;;;;;5.63;4.03;;;;;;;9.85;55.53;100152.94;5030470;28;20536;-83
2021/10/25 01:15:08;;;;;;;5.75;3.92;;;;;;;9.83;55.78;100154.75;5029639;28;20106;-83
2021/10/25 01:17:34;;;;;;;5.85;3.95;;;;;;;9.83;55.58;100146.03;5029741;28;20050;-83
2021/10/25 01:20:04;;;;;;;4.32;3.63;;;;;;;9.81;55.60;100146.09;5029778;28;20128;-83
2021/10/25 01:22:34;;;;;;;5.28;3.67;;;;;;;9.80;55.51;100136.53;5029402;28;20045;-83
2021/10/25 01:25:02;;;;;;;4.70;3.35;;;;;;;9.78;55.72;100133.97;5029564;28;20049;-83
2021/10/25 01:27:29;;;;;;;8.20;4.30;;;;;;;9.75;55.51;100131.47;5029611;28;20144;-83
2021/10/25 01:29:56;;;;;;;7.43;3.80;;;;;;;9.73;55.70;100140.34;5046071;28;20053;-83
2021/10/25 01:32:25;;;;;;;5.13;3.92;;;;;;;9.70;55.82;100130.84;5029807;28;20459;-83
2021/10/25 01:34:54;;;;;;;7.38;4.20;;;;;;;9.66;55.96;100126.66;5029577;28;20057;-83
2021/10/25 01:37:23;;;;;;;5.50;3.85;;;;;;;9.65;55.97;100127.59;5030717;28;20060;-83
2021/10/25 01:39:51;;;;;;;8.15;4.13;;;;;;;9.62;55.92;100127.72;5030720;28;20458;-83
2021/10/25 01:42:20;;;;;;;5.53;3.88;;;;;;;9.59;56.32;100127.84;5029461;28;20060;-83
2021/10/25 01:44:48;;;;;;;5.88;3.60;;;;;;;9.57;56.12;100124.47;5029307;28;20049;-83
2021/10/25 01:47:15;;;;;;;8.07;4.10;;;;;;;9.55;56.12;100119.28;5029045;28;20053;-83
2021/10/25 01:49:41;;;;;;;6.38;3.85;;;;;;;9.54;56.23;100125.47;5029202;28;20065;-83
2021/10/25 01:52:12;;;;;;;11.65;4.38;;;;;;;9.50;56.79;100129.16;5029506;28;20472;-83
2021/10/25 01:54:46;;;;;;;5.63;4.10;;;;;;;9.48;57.18;100123.09;5029397;28;20075;-83
2021/10/25 01:57:15;;;;;;;6.47;4.15;;;;;;;9.48;56.41;100118.72;5029170;28;20073;-83
2021/10/25 01:59:43;;;;;;;8.55;4.15;;;;;;;9.46;56.25;100117.91;5030384;28;20482;-83
2021/10/25 02:02:24;;;;;;;6.63;3.80;;;;;;;9.41;57.39;100113.81;5030210;28;20053;-83
2021/10/25 02:04:51;;;;;;;7.63;4.30;;;;;;;9.42;56.36;100115.53;5029116;28;20049;-83
2021/10/25 02:07:18;;;;;;;5.55;3.40;;;;;;;9.39;56.44;100108.63;5029045;28;20045;-83
2021/10/25 02:10:04;;;;;;;6.40;4.57;;;;;;;9.34;57.34;100113.22;5028955;28;20084;-83
2021/10/25 02:12:31;;;;;;;5.50;4.10;;;;;;;9.35;56.88;100099.19;5029051;28;20144;-82
2021/10/25 02:14:58;;;;;;;6.85;4.18;;;;;;;9.33;56.74;100101.03;5029310;28;20054;-83
2021/10/25 02:17:32;;;;;;;6.47;4.32;;;;;;;9.28;57.89;100100.38;5030103;28;20148;-83
2021/10/25 02:20:00;;;;;;;8.00;3.90;;;;;;;9.28;56.77;100103.00;5028833;28;20087;-83
2021/10/25 02:22:27;;;;;;;5.40;4.15;;;;;;;9.27;56.91;100101.31;5028825;28;20056;-83
2021/10/25 02:25:01;;;;;;;4.80;3.75;;;;;;;9.22;57.98;100099.75;5030160;28;20085;-83
2021/10/25 02:27:30;;;;;;;7.45;4.68;;;;;;;9.22;57.12;100089.25;5029165;28;20057;-83
2021/10/25 02:29:58;;;;;;;8.00;4.72;;;;;;;9.23;57.38;100101.44;5028981;28;20451;-83
2021/10/25 02:32:38;;;;;;;5.60;3.65;;;;;;;9.19;58.05;100091.16;5029264;28;20054;-83
2021/10/25 02:35:07;;;;;;;9.40;4.78;;;;;;;9.21;57.20;100086.69;5029222;28;20049;-83
2021/10/25 02:37:35;;;;;;;6.80;3.75;;;;;;;9.19;57.37;100088.53;5028674;28;20053;-83
2021/10/25 02:40:06;;;;;;;6.80;4.05;;;;;;;9.16;57.65;100084.25;5030086;28;20144;-83
2021/10/25 02:42:33;;;;;;;5.97;4.28;;;;;;;9.16;57.48;100078.16;5028562;28;20054;-83
2021/10/25 02:45:00;;;;;;;6.75;4.00;;;;;;;9.15;57.26;100079.09;5028963;28;20053;-83
2021/10/25 02:47:33;;;;;;;7.03;4.32;;;;;;;9.10;58.46;100079.31;5028561;28;20045;-83
2021/10/25 02:50:00;;;;;;;;;;;;;;;9.11;58.23;100075.75;5028272;28;20053;-83
2021/10/25 02:52:26;;;;;;;7.15;4.07;;;;;;;9.13;57.23;100074.75;5028259;28;19956;-82
2021/10/25 02:55:03;;;;;;;6.68;4.05;;;;;;;9.08;58.29;100066.22;5028695;28;20054;-82
2021/10/25 02:57:31;;;;;;;6.22;3.60;;;;;;;9.09;57.35;100061.84;5028433;28;20050;-82
2021/10/25 03:00:00;;;;;;;8.77;4.60;;;;;;;9.07;57.35;100066.28;5032142;28;20057;-82
2021/10/25 03:02:32;;;;;;;8.60;4.93;;;;;;;9.03;58.43;100072.63;5031796;28;20082;-83
2021/10/25 03:04:59;;;;;;;5.97;4.05;;;;;;;9.02;57.64;100076.16;5032029;28;20099;-83
2021/10/25 03:07:27;;;;;;;6.68;4.55;;;;;;;9.00;57.90;100073.59;5032769;28;20127;-82
2021/10/25 03:09:54;;;;;;;6.75;4.45;;;;;;;8.98;57.86;100075.47;5033051;28;20046;-82
2021/10/25 03:12:22;;;;;;;5.97;4.35;;;;;;;8.96;58.06;100066.78;5031822;28;20049;-82
2021/10/25 03:14:48;;;;;;;7.72;4.60;;;;;;;8.93;57.85;100070.41;5031834;28;20107;-82
2021/10/25 03:17:25;;;;;;;7.88;4.47;;;;;;;8.90;59.13;100073.16;5031439;28;20071;-83
2021/10/25 03:19:53;;;;;;;5.25;4.18;;;;;;;8.91;58.56;100072.25;5031586;28;20054;-83
2021/10/25 03:22:48;;;;;;;6.53;4.22;;;;;;;8.88;59.43;100066.28;5032507;28;20046;-82
2021/10/25 03:25:16;;;;;;;7.07;4.38;;;;;;;8.90;58.52;100073.16;5031446;28;20060;-82
2021/10/25 03:27:44;;;;;;;5.82;4.30;;;;;;;8.90;58.16;100069.69;5031602;28;20054;-81
2021/10/25 03:30:16;;;;;;;5.53;4.00;;;;;;;8.89;59.14;100076.72;5031272;28;20409;-82
2021/10/25 03:32:43;;;;;;;7.93;4.75;;;;;;;8.89;58.41;100071.47;5031388;28;20045;-81
2021/10/25 03:35:11;;;;;;;6.10;4.03;;;;;;;8.89;58.35;100066.22;5032786;28;20412;-82
2021/10/25 03:37:42;;;;;;;7.35;4.32;;;;;;;8.88;59.29;100067.16;5031436;28;20140;-82
2021/10/25 03:40:11;;;;;;;8.60;4.43;;;;;;;8.90;58.58;100062.66;5031348;28;20094;-82
2021/10/25 03:42:48;;;;;;;8.73;4.25;;;;;;;8.90;58.81;100069.69;5031112;28;20047;-82
2021/10/25 03:45:24;;;;;;;6.65;4.28;;;;;;;8.89;58.89;100062.75;5031309;28;20077;-82
2021/10/25 03:50:35;;;;;;;6.75;3.97;;;;;;;8.87;59.45;100057.56;5093486;28;20052;-81
2021/10/25 03:56:18;;;;;;;5.43;4.28;;;;;;;8.85;59.78;100054.16;5093108;28;20056;-81
2021/10/25 03:59:10;;;;;;;7.53;4.70;;;;;;;8.89;58.48;100054.88;5077058;28;20059;-81
2021/10/25 04:25:24;;;;;;;4.27;3.40;;;;;;;8.83;59.51;100063.88;5031730;28;20052;-81
2021/10/25 04:27:44;;;;;;;6.90;4.18;;;;;;;8.82;58.49;100051.69;5031643;28;20482;-81
2021/10/25 04:30:12;;;;;;;8.75;3.97;;;;;;;8.81;58.57;100052.56;5031248;28;20140;-81
2021/10/25 04:32:40;;;;;;;8.82;4.38;;;;;;;8.80;58.55;100045.63;5030209;28;20061;-81
2021/10/25 04:35:08;;;;;;;7.85;4.30;;;;;;;8.79;58.82;100055.28;5031014;28;20533;-81
2021/10/25 04:37:41;;;;;;;6.13;3.92;;;;;;;8.75;59.81;100040.59;5030631;28;20049;-81
2021/10/25 04:40:09;;;;;;;11.25;4.53;;;;;;;8.77;59.10;100043.13;5030388;28;20081;-81
2021/10/25 04:42:36;;;;;;;6.10;4.22;;;;;;;8.75;59.07;100047.63;5030164;28;20096;-81
2021/10/25 04:45:07;;;;;;;7.25;4.40;;;;;;;8.72;60.07;100044.19;5030264;28;20149;-81
2021/10/25 04:47:34;;;;;;;7.70;4.85;;;;;;;8.74;59.14;100049.38;5030098;28;20060;-82
2021/10/25 04:50:06;;;;;;;8.50;3.95;;;;;;;8.72;59.26;100041.56;5030343;28;20056;-89
2021/10/25 04:52:47;;;;;;;5.28;3.75;;;;;;;8.69;59.95;100052.22;5030148;28;20090;-89
2021/10/25 04:55:18;;;;;;;7.18;4.47;;;;;;;8.71;59.64;100047.75;5030410;28;20059;-89
2021/10/25 04:57:45;;;;;;;6.32;4.13;;;;;;;8.72;59.30;100040.75;5030130;28;20063;-90
2021/10/25 05:00:12;;;;;;;10.13;4.53;;;;;;;8.72;59.15;100040.75;5030230;28;20413;-89
2021/10/25 05:02:39;;;;;;;5.20;4.13;;;;;;;8.72;59.33;100043.38;5029816;28;20140;-89
2021/10/25 05:05:07;;;;;;;6.00;4.35;;;;;;;8.70;59.43;100040.81;5030226;28;20049;-89
2021/10/25 05:07:57;;;;;;;7.07;4.22;;;;;;;8.69;60.19;100044.34;5031518;28;20429;-89
2021/10/25 05:10:24;;;;;;;6.03;4.13;;;;;;;8.74;59.12;100041.50;5029689;28;20046;-89
2021/10/25 05:12:50;;;;;;;7.28;4.35;;;;;;;8.72;59.16;100041.56;5029746;28;20049;-89
2021/10/25 05:15:21;;;;;;;5.50;3.85;;;;;;;8.73;59.38;100038.06;5029807;28;20750;-88
2021/10/25 05:18:06;;;;;;;9.30;4.40;;;;;;;8.70;60.95;100042.56;5029693;28;20053;-89
2021/10/25 05:20:33;;;;;;;6.50;4.57;;;;;;;8.75;59.21;100039.75;5030895;28;20055;-83
2021/10/25 05:23:11;;;;;;;6.80;4.30;;;;;;;8.72;60.19;100031.06;5029221;28;20493;-83
2021/10/25 05:25:37;;;;;;;5.15;3.90;;;;;;;8.75;59.49;100034.50;5029660;28;20053;-83
2021/10/25 05:28:12;;;;;;;6.78;4.38;;;;;;;8.72;60.18;100032.88;5029695;28;20435;-84
2021/10/25 05:30:40;;;;;;;6.88;4.25;;;;;;;8.77;59.26;100035.25;5029589;28;20056;-84
2021/10/25 05:33:09;;;;;;;7.50;4.45;;;;;;;8.73;59.50;100019.69;5029477;28;20056;-89
2021/10/25 05:35:42;;;;;;;8.95;4.43;;;;;;;8.76;59.41;100030.94;5029568;28;20064;-88
2021/10/25 05:38:14;;;;;;;6.53;4.60;;;;;;;8.75;60.08;100021.38;5029222;28;20045;-89
2021/10/25 05:40:41;;;;;;;8.38;4.65;;;;;;;8.75;59.35;100017.00;5030749;28;20053;-82
2021/10/25 05:43:08;;;;;;;7.03;4.47;;;;;;;8.74;59.72;100017.88;5029351;28;20107;-82
2021/10/25 05:45:36;;;;;;;6.55;4.70;;;;;;;8.73;59.49;100022.31;5046117;28;20080;-82
2021/10/25 05:48:10;;;;;;;7.20;4.43;;;;;;;8.71;60.70;100023.28;5029408;28;20061;-82
2021/10/25 05:50:37;;;;;;;7.18;5.00;;;;;;;8.73;59.71;100014.44;5029337;28;20102;-82
2021/10/25 05:53:06;;;;;;;7.70;4.63;;;;;;;8.74;60.01;100017.88;5045750;28;20103;-82
2021/10/25 05:55:43;;;;;;;7.50;4.60;;;;;;;8.71;60.83;100012.78;5029611;28;20820;-82
2021/10/25 05:58:16;;;;;;;10.00;4.50;;;;;;;8.75;59.75;100022.25;5029182;28;20061;-82
2021/10/25 06:00:48;;;;;;;6.22;4.38;;;;;;;8.75;60.16;100014.38;5029670;28;20494;-82
2021/10/25 06:03:23;;;;;;;10.13;4.55;;;;;;;8.76;60.81;100025.69;5029233;28;20407;-83
2021/10/25 06:05:51;;;;;;;8.32;4.55;;;;;;;8.77;59.98;100012.50;5029170;28;20057;-83
2021/10/25 06:08:19;;;;;;;6.22;4.63;;;;;;;8.79;60.26;100025.56;5030223;28;20561;-82
2021/10/25 06:10:49;;;;;;;6.95;4.55;;;;;;;8.79;60.50;100020.31;5029023;28;20053;-82
2021/10/25 06:13:24;;;;;;;6.13;4.40;;;;;;;8.80;60.34;100019.38;5029143;28;20073;-82
2021/10/25 06:16:17;;;;;;;7.00;4.25;;;;;;;8.81;60.19;100018.47;5029195;28;20048;-82
2021/10/25 06:18:48;;;;;;;7.28;4.47;;;;;;;8.82;59.89;100023.63;5029048;28;20067;-82
2021/10/25 06:21:15;;;;;;;6.97;4.60;;;;;;;8.82;60.30;100022.81;5029997;28;20061;-82
2021/10/25 06:23:42;;;;;;;6.43;4.47;;;;;;;8.82;60.39;100023.63;5028906;28;20098;-82
2021/10/25 06:26:20;;;;;;;7.80;4.72;;;;;;;8.79;60.89;100020.31;5029160;28;20049;-82
2021/10/25 06:28:48;;;;;;;7.63;4.88;;;;;;;8.81;60.18;100008.81;5029038;28;20409;-82
2021/10/25 06:31:17;;;;;;;6.38;4.25;;;;;;;8.82;60.15;100017.56;5030018;28;20049;-82
2021/10/25 06:33:46;;;;;;;8.60;4.63;;;;;;;8.83;59.98;100029.75;5029528;28;20128;-82
2021/10/25 06:36:17;;;;;;;8.52;4.68;;;;;;;8.83;60.17;100019.25;5032259;28;20056;-82
2021/10/25 06:38:56;;;;;;;6.03;4.65;;;;;;;8.81;61.32;100027.19;5032023;28;20049;-82
2021/10/25 06:41:24;;;;;;;7.63;4.90;;;;;;;8.85;60.68;100015.63;5032505;28;20077;-82
2021/10/25 06:43:51;;;;;;;7.22;4.70;;;;;;;8.88;60.80;100013.78;5032042;28;20060;-82
2021/10/25 06:46:26;;;;;;;7.70;5.45;;;;;;;8.86;61.92;100019.97;5032393;28;20132;-82
2021/10/25 06:48:53;;;;;;;6.97;5.38;;;;;;;8.93;61.12;100028.41;5032026;28;20053;-83
2021/10/25 06:51:20;;;;;;;6.72;4.65;;;;;;;8.97;61.16;100032.59;5033251;28;20082;-82
2021/10/25 06:53:47;;;;;;;7.97;4.78;;;;;;;9.03;61.40;100031.47;5032224;28;20053;-82
2021/10/25 06:56:14;;;;;;;11.93;4.80;;;;;;;9.08;61.10;100034.72;5031803;28;20056;-83
2021/10/25 06:58:42;;;;;;;6.50;4.68;;;;;;;9.15;61.39;100031.81;5031686;28;20141;-82
2021/10/25 07:01:13;;;;;;;10.02;4.18;;;;;;;9.19;61.71;100047.34;5031927;28;20057;-83
2021/10/25 07:03:40;;;;;;;7.32;4.55;;;;;;;9.28;60.88;100050.47;5032014;28;20049;-83
2021/10/25 07:06:14;;;;;;;10.27;4.93;;;;;;;9.34;61.14;100047.53;5031937;28;20110;-83
2021/10/25 07:08:46;;;;;;;10.02;4.82;;;;;;;9.38;61.35;100057.84;5031485;28;20049;-82
2021/10/25 07:11:15;;;;;;;7.85;4.45;;;;;;;9.44;61.02;100051.47;5031868;28;20110;-82
2021/10/25 07:13:47;;;;;;;7.38;4.75;;;;;;;9.47;60.99;100051.31;5031706;28;20110;-83
2021/10/25 07:16:23;;;;;;;7.50;4.53;;;;;;;9.49;61.14;100052.09;5031901;28;20497;-83
2021/10/25 08:10:07;;;;;;;6.63;4.70;;;;;;;10.38;60.46;100052.16;5031994;28;20087;-83
2021/10/25 08:12:36;;;;;;;9.82;4.50;;;;;;;10.41;60.28;100052.84;5030878;28;20132;-83
2021/10/25 08:15:07;;;;;;;11.10;4.53;;;;;;;10.47;60.17;100051.69;5030732;28;20046;-82
2021/10/25 08:17:44;;;;;;;8.75;4.75;;;;;;;10.53;60.30;100053.16;5030676;28;20054;-82
2021/10/25 08:20:13;;;;;;;5.40;4.30;;;;;;;10.61;60.30;100060.69;5030704;28;20098;-83
2021/10/25 08:22:42;;;;;;;10.77;4.68;;;;;;;10.64;60.30;100053.47;5032377;28;20045;-82
2021/10/25 08:25:10;;;;;;;9.98;4.63;;;;;;;10.70;59.96;100057.56;5030833;28;20507;-83
2021/10/25 08:27:38;;;;;;;6.18;4.43;;;;;;;10.75;59.93;100055.53;5030664;28;20049;-83
2021/10/25 08:30:06;;;;;;;6.63;3.97;;;;;;;10.78;60.16;100050.13;5030512;28;20103;-82
2021/10/25 08:35:27;;;;;;;6.53;3.95;;;;;;;10.90;59.82;100053.88;5031880;28;20046;-83
2021/10/25 08:41:22;;;;;;;6.80;4.32;;;;;;;11.02;59.48;100054.13;5032667;28;20455;-83
2021/10/25 08:43:53;;;;;;;6.57;3.90;;;;;;;11.04;59.56;100062.81;5030192;28;20106;-83
2021/10/25 09:01:31;;;;;;;7.35;4.38;;;;;;;11.26;59.01;100065.13;5031266;28;20099;-83
2021/10/25 09:04:09;;;;;;;9.35;4.00;;;;;;;11.28;58.92;100062.38;5030260;28;20546;-83
2021/10/25 09:07:06;;;;;;;6.88;4.00;;;;;;;11.33;58.88;100055.94;5030191;28;20060;-83
2021/10/25 09:09:33;;;;;;;6.72;4.50;;;;;;;11.37;59.08;100050.50;5029968;28;20512;-83
2021/10/25 09:12:06;;;;;;;7.95;3.95;;;;;;;11.40;59.10;100047.69;5029999;28;20053;-83
2021/10/25 09:14:40;;;;;;;8.25;4.35;;;;;;;11.43;59.07;100053.63;5030224;28;20481;-83
2021/10/25 09:17:09;;;;;;;6.40;4.38;;;;;;;11.51;58.94;100049.75;5030845;28;20061;-83
2021/10/25 09:19:39;;;;;;;8.18;4.15;;;;;;;11.55;59.25;100052.09;5029758;28;20524;-83
2021/10/25 09:22:50;;;;;;;5.68;4.20;;;;;;;11.60;59.10;100044.78;5029879;28;20057;-83
2021/10/25 09:25:18;;;;;;;6.00;3.83;;;;;;;11.72;58.99;100045.03;5030505;27;20045;-83
2021/10/25 09:27:48;;;;;;;6.45;4.15;;;;;;;11.78;58.76;100043.81;5030788;28;20132;-83
2021/10/25 09:30:24;;;;;;;5.53;4.47;;;;;;;11.81;58.74;100044.47;5029742;28;20486;-83
2021/10/25 09:32:52;;;;;;;8.38;4.53;;;;;;;11.90;58.79;100047.53;5029924;28;20401;-83
2021/10/25 09:35:28;;;;;;;7.63;4.30;;;;;;;11.95;58.63;100045.47;5029451;28;20128;-83
2021/10/25 09:38:07;;;;;;;8.15;4.80;;;;;;;12.01;58.65;100046.91;5046297;28;20057;-83
2021/10/25 09:49:08;;;;;;;7.22;4.20;;;;;;;12.25;58.39;100040.22;4989219;28;20433;-83
2021/10/25 09:51:41;;;;;;;9.75;4.90;;;;;;;12.30;58.54;100047.03;4973340;28;20431;-82
2021/10/25 09:54:10;;;;;;;6.07;4.68;;;;;;;12.34;58.40;100052.00;4973326;28;20392;-83
2021/10/25 09:56:45;;;;;;;7.43;4.30;;;;;;;12.40;58.31;100050.78;4973102;28;20514;-83
2021/10/25 10:00:05;;;;;;;7.60;4.57;;;;;;;12.45;58.32;100053.16;4975410;28;20061;-83
2021/10/25 10:02:34;;;;;;;6.07;4.10;;;;;;;12.53;58.32;100048.28;5023385;28;20046;-83
2021/10/25 10:05:06;;;;;;;7.18;4.13;;;;;;;12.58;58.49;100054.13;5029045;28;20060;-83
2021/10/25 10:07:34;;;;;;;7.20;4.60;;;;;;;12.65;58.48;100051.97;5029403;28;20046;-89
2021/10/25 10:10:23;;;;;;;6.80;4.07;;;;;;;12.69;58.78;100042.03;5032886;28;20059;-89
2021/10/25 10:12:51;;;;;;;8.43;3.78;;;;;;;12.83;58.64;100039.41;5032659;28;20067;-89
2021/10/25 10:15:20;;;;;;;5.65;4.25;;;;;;;12.95;58.77;100031.66;5032821;28;20517;-89
2021/10/25 10:17:59;;;;;;;9.43;4.65;;;;;;;13.04;58.33;100028.44;5033582;28;20049;-84
2021/10/25 10:20:26;;;;;;;6.80;4.07;;;;;;;13.21;58.58;100031.81;5032647;28;20546;-84
2021/10/25 10:22:59;;;;;;;7.65;4.18;;;;;;;13.31;58.51;100026.78;5032483;28;20140;-84
2021/10/25 10:25:57;;;;;;;8.02;4.63;;;;;;;13.41;58.02;100026.09;5032608;28;20126;-84
2021/10/25 10:28:39;;;;;;;5.68;3.85;;;;;;;13.57;58.21;100024.28;5032578;28;20064;-84
2021/10/25 10:31:25;;;;;;;7.80;3.90;;;;;;;13.73;58.34;100019.69;5032413;28;20044;-85
2021/10/25 10:33:57;;;;;;;8.95;4.28;;;;;;;13.85;57.71;100023.31;5032366;28;20049;-85
2021/10/25 10:36:35;;;;;;;6.05;3.90;;;;;;;13.96;57.36;100019.06;5032593;28;20053;-85
2021/10/25 10:39:11;;;;;;;5.85;3.80;;;;;;;14.10;57.92;100019.00;5032396;28;20053;-85
2021/10/25 10:41:38;;;;;;;6.93;4.00;;;;;;;14.27;57.87;100015.22;5032317;28;20060;-85
2021/10/25 10:44:15;;;;;;;5.53;3.55;;;;;;;14.41;57.69;100005.47;5032365;28;20103;-85
2021/10/25 10:47:13;;;;;;;6.18;4.00;;;;;;;14.57;56.99;100007.88;5032070;28;20443;-85
2021/10/25 10:49:42;;;;;;;7.13;4.10;;;;;;;14.81;57.60;100004.50;5031406;28;20056;-85
2021/10/25 10:54:59;;;;;;;4.85;3.17;;;;;;;15.36;58.65;100014.72;5033291;28;20049;-85
2021/10/25 11:00:34;;;;;;;5.32;3.20;;;;;;;16.14;57.38;100014.31;5033019;28;20114;-85
2021/10/25 11:03:09;;;;;;;6.03;3.30;;;;;;;16.49;56.02;100012.59;5032220;28;20457;-85
2021/10/25 11:06:10;;;;;;;5.82;3.00;;;;;;;16.74;52.83;100008.81;5031966;28;20040;-85
2021/10/25 11:08:42;;;;;;;5.55;3.50;;;;;;;16.94;52.75;100014.38;5031856;28;20111;-85
2021/10/25 11:11:24;;;;;;;10.65;3.70;;;;;;;16.97;52.27;100003.47;5031845;28;20053;-85
2021/10/25 11:14:00;;;;;;;5.82;3.20;;;;;;;17.00;52.60;100003.25;5032995;28;20537;-86
2021/10/25 11:19:12;;;;;;;5.10;3.22;;;;;;;16.84;51.76;99990.34;5032703;28;20474;-85
2021/10/25 11:21:52;;;;;;;4.32;3.10;;;;;;;16.79;52.30;99997.84;5031742;28;20133;-85
2021/10/25 11:24:36;;;;;;;4.90;3.20;;;;;;;16.72;52.84;100001.94;5031604;28;20107;-85
2021/10/25 11:27:03;;;;;;;4.57;3.10;;;;;;;16.63;52.76;99988.41;5031742;28;20142;-85
2021/10/25 11:29:33;;;;;;;5.93;3.10;;;;;;;16.57;52.75;99996.03;5031506;28;20049;-85
2021/10/25 11:32:01;;;;;;;6.05;2.90;;;;;;;16.50;52.71;100001.84;5031914;28;20132;-86
2021/10/25 11:34:32;;;;;;;6.03;2.90;;;;;;;16.46;52.84;99991.56;5031680;28;20060;-85
2021/10/25 11:37:16;;;;;;;4.18;2.72;;;;;;;16.41;52.95;99999.91;5031340;28;20136;-84
2021/10/25 11:39:58;;;;;;;8.57;3.08;;;;;;;16.40;53.53;99996.38;5031081;28;20142;-85
2021/10/25 11:42:45;;;;;;;7.20;3.30;;;;;;;16.45;53.67;99996.00;5032318;28;20136;-85
2021/10/25 11:45:42;;;;;;;6.45;3.47;;;;;;;16.42;53.02;99990.97;5031138;28;20136;-85
2021/10/25 11:48:09;;;;;;;6.85;3.25;;;;;;;16.48;53.25;99995.78;5030794;28;20054;-85
2021/10/25 11:50:38;;;;;;;4.50;3.08;;;;;;;16.49;53.29;99994.81;5031265;28;20064;-84
2021/10/25 11:53:07;;;;;;;5.28;3.30;;;;;;;16.48;53.33;99990.47;5031110;28;20061;-85
2021/10/25 11:56:11;;;;;;;5.90;2.90;;;;;;;16.45;53.32;99985.38;5031011;28;20045;-85
2021/10/25 11:58:38;;;;;;;4.70;3.17;;;;;;;16.50;53.35;99983.22;5030959;28;20057;-85
2021/10/25 12:01:11;;;;;;;3.78;2.95;;;;;;;16.49;53.21;99986.84;5031015;28;20063;-85
2021/10/25 12:04:05;;;;;;;5.28;3.10;;;;;;;16.46;53.35;99978.28;5031055;28;20498;-85
2021/10/25 12:06:33;;;;;;;4.47;2.92;;;;;;;16.53;53.40;99977.66;5030977;28;20449;-84
2021/10/25 12:09:04;;;;;;;7.28;3.40;;;;;;;16.56;53.00;99970.44;5030929;28;20132;-85
2021/10/25 12:14:28;;;;;;;5.78;3.20;;;;;;;16.57;52.86;99972.97;5031925;28;20053;-84
2021/10/25 12:16:55;;;;;;;7.32;3.03;;;;;;;16.56;52.98;99967.78;5030691;28;20052;-85
2021/10/25 12:19:23;;;;;;;5.00;3.17;;;;;;;16.54;53.14;99973.19;5030529;28;20060;-85
2021/10/25 12:22:16;;;;;;;4.35;3.08;;;;;;;16.50;53.40;99969.94;5030828;28;20464;-84
2021/10/25 12:24:46;;;;;;;4.13;2.92;;;;;;;16.58;53.49;99974.66;5030556;28;20138;-85
2021/10/25 12:27:35;;;;;;;4.93;2.83;;;;;;;16.60;53.40;99969.22;5030677;28;20064;-85
2021/10/25 12:30:06;;;;;;;5.90;3.20;;;;;;;16.66;52.92;99971.38;5030580;28;20056;-84
2021/10/25 12:32:59;;;;;;;7.55;3.13;;;;;;;16.61;52.69;99958.47;5030373;28;20096;-84
2021/10/25 12:35:36;;;;;;;5.68;3.00;;;;;;;16.61;52.95;99963.78;5030252;28;20049;-84
2021/10/25 12:38:08;;;;;;;4.90;2.90;;;;;;;16.58;52.88;99963.16;5030232;28;20053;-85
2021/10/25 12:40:41;;;;;;;4.35;2.53;;;;;;;16.53;53.07;99963.53;5030514;28;20144;-84
2021/10/25 12:43:09;;;;;;;4.47;2.95;;;;;;;16.50;53.36;99961.13;4955018;28;20060;-84
2021/10/25 12:45:42;;;;;;;5.72;2.80;;;;;;;16.46;53.50;99954.34;4954784;28;20047;-84
2021/10/25 12:48:10;;;;;;;;;;;;;;;16.41;53.40;99958.22;4954958;28;20137;-85
2021/10/25 12:50:41;;;;;;;4.25;2.70;;;;;;;16.42;53.24;99959.91;4970838;28;19922;-84
2021/10/25 12:53:14;;;;;;;6.00;3.50;;;;;;;16.36;53.37;99960.41;4954554;28;20057;-85
2021/10/25 12:55:44;;;;;;;;;;;;;;;16.34;53.69;99961.47;4955280;28;20137;-85
2021/10/25 12:58:24;;;;;;;5.13;3.40;;;;;;;16.31;53.49;99959.06;4970402;28;19922;-84
2021/10/25 13:00:52;;;;;;;6.93;3.67;;;;;;;16.30;53.64;99957.38;4976669;28;20058;-85
2021/10/25 13:03:19;;;;;;;4.70;2.63;;;;;;;16.25;53.97;99957.72;5030173;28;20132;-85
2021/10/25 13:06:04;;;;;;;2.97;2.58;;;;;;;16.19;54.04;99956.41;5030513;28;20056;-90
2021/10/25 13:08:30;;;;;;;4.22;2.75;;;;;;;16.22;54.16;99958.81;5030200;28;20057;-91
2021/10/25 13:10:57;;;;;;;5.78;2.83;;;;;;;16.22;54.34;99956.16;5030527;28;20106;-90
2021/10/25 13:13:34;;;;;;;4.20;2.22;;;;;;;16.20;54.32;99951.94;5029991;28;20053;-90
2021/10/25 13:16:03;;;;;;;6.38;2.90;;;;;;;16.20;54.10;99947.47;5030394;28;20063;-90
2021/10/25 13:19:04;;;;;;;4.00;2.47;;;;;;;16.15;54.28;99947.00;5030175;28;20407;-90
2021/10/25 13:21:37;;;;;;;5.75;3.17;;;;;;;16.19;54.19;99948.44;5030235;28;20057;-85
2021/10/25 13:24:12;;;;;;;5.47;2.72;;;;;;;16.15;54.07;99944.34;5029713;28;20049;-84
2021/10/25 13:26:44;;;;;;;5.15;2.78;;;;;;;16.17;54.16;99938.88;5029671;28;20045;-84
2021/10/25 13:29:11;;;;;;;6.60;2.97;;;;;;;16.14;54.14;99943.47;5029977;28;20045;-84
2021/10/25 13:31:40;;;;;;;5.15;3.00;;;;;;;16.12;54.47;99936.59;5029613;28;20049;-84
2021/10/25 13:34:06;;;;;;;7.75;2.88;;;;;;;16.11;54.38;99929.59;5029595;28;20056;-84
2021/10/25 13:36:33;;;;;;;5.85;2.60;;;;;;;16.09;54.48;99927.06;5029569;28;20170;-84
2021/10/25 13:39:13;;;;;;;4.28;2.78;;;;;;;16.07;54.59;99928.97;4936044;29;20083;-84
2021/10/25 13:41:40;;;;;;;4.65;2.65;;;;;;;16.07;54.58;99928.16;4934944;29;20055;-84
2021/10/25 13:44:08;;;;;;;4.05;2.53;;;;;;;16.06;54.89;99915.81;4934364;29;20101;-84
2021/10/25 13:46:43;;;;;;;4.53;3.20;;;;;;;16.02;55.01;99913.41;4934676;28;20142;-84
2021/10/25 13:49:10;;;;;;;6.80;2.75;;;;;;;16.05;54.88;99915.00;4934689;29;20137;-84
2021/10/25 13:51:37;;;;;;;3.70;2.53;;;;;;;16.05;54.96;99911.47;4934827;29;20138;-85
2021/10/25 13:54:06;;;;;;;5.47;2.70;;;;;;;16.06;55.17;99910.50;4934926;29;20602;-84
2021/10/25 13:56:35;;;;;;;5.78;2.65;;;;;;;16.08;55.16;99911.25;4949607;28;20049;-84